sensor_id;sensor_type;location;lat;lon;timestamp;P1;durP1;ratioP1;P2;durP2;ratioP2
13267;SDS011;6702;47.068;15.458;2023-02-28T00:01:46;5.57;;;5.17;;
13267;SDS011;6702;47.068;15.458;2023-02-28T00:04:50;6.93;;;6.30;;
13267;SDS011;6702;47.068;15.458;2023-02-28T00:07:54;7.00;;;6.30;;
13267;SDS011;6702;47.068;15.458;2023-02-28T00:11:00;8.03;;;7.20;;
13267;SDS011;6702;47.068;15.458;2023-02-28T00:14:04;6.10;;;5.60;;
13267;SDS011;6702;47.068;15.458;2023-02-28T00:17:09;6.83;;;6.33;;
13267;SDS011;6702;47.068;15.458;2023-02-28T00:20:13;6.43;;;5.70;;
13267;SDS011;6702;47.068;15.458;2023-02-28T00:23:16;7.00;;;6.30;;
13267;SDS011;6702;47.068;15.458;2023-02-28T00:26:20;7.80;;;6.80;;
13267;SDS011;6702;47.068;15.458;2023-02-28T00:29:24;11.40;;;6.63;;
13267;SDS011;6702;47.068;15.458;2023-02-28T00:32:28;6.80;;;6.10;;
13267;SDS011;6702;47.068;15.458;2023-02-28T00:35:32;6.43;;;5.90;;
13267;SDS011;6702;47.068;15.458;2023-02-28T00:38:35;7.73;;;6.93;;
13267;SDS011;6702;47.068;15.458;2023-02-28T00:41:38;10.40;;;6.50;;
13267;SDS011;6702;47.068;15.458;2023-02-28T00:44:42;8.03;;;7.23;;
13267;SDS011;6702;47.068;15.458;2023-02-28T00:47:46;8.53;;;6.93;;
13267;SDS011;6702;47.068;15.458;2023-02-28T00:50:51;7.37;;;6.77;;
13267;SDS011;6702;47.068;15.458;2023-02-28T00:53:54;6.83;;;6.20;;
13267;SDS011;6702;47.068;15.458;2023-02-28T00:56:57;5.80;;;5.33;;
13267;SDS011;6702;47.068;15.458;2023-02-28T01:00:00;7.17;;;6.47;;
13267;SDS011;6702;47.068;15.458;2023-02-28T01:03:06;7.00;;;6.40;;
13267;SDS011;6702;47.068;15.458;2023-02-28T01:06:09;7.33;;;6.47;;
13267;SDS011;6702;47.068;15.458;2023-02-28T01:09:12;10.47;;;6.90;;
13267;SDS011;6702;47.068;15.458;2023-02-28T01:12:15;6.90;;;6.20;;
13267;SDS011;6702;47.068;15.458;2023-02-28T01:15:19;8.63;;;6.50;;
13267;SDS011;6702;47.068;15.458;2023-02-28T01:18:23;8.00;;;7.20;;
13267;SDS011;6702;47.068;15.458;2023-02-28T01:21:27;13.40;;;12.10;;
13267;SDS011;6702;47.068;15.458;2023-02-28T01:24:31;10.60;;;9.60;;
13267;SDS011;6702;47.068;15.458;2023-02-28T01:27:35;10.23;;;9.20;;
13267;SDS011;6702;47.068;15.458;2023-02-28T01:30:40;9.90;;;9.00;;
13267;SDS011;6702;47.068;15.458;2023-02-28T01:33:45;8.43;;;7.00;;
13267;SDS011;6702;47.068;15.458;2023-02-28T01:36:48;7.10;;;6.40;;
13267;SDS011;6702;47.068;15.458;2023-02-28T01:39:51;7.73;;;7.13;;
13267;SDS011;6702;47.068;15.458;2023-02-28T01:42:55;6.43;;;5.93;;
13267;SDS011;6702;47.068;15.458;2023-02-28T01:45:58;7.43;;;6.83;;
13267;SDS011;6702;47.068;15.458;2023-02-28T01:49:05;6.80;;;6.30;;
13267;SDS011;6702;47.068;15.458;2023-02-28T01:52:11;6.77;;;6.17;;
13267;SDS011;6702;47.068;15.458;2023-02-28T01:55:19;6.50;;;5.90;;
13267;SDS011;6702;47.068;15.458;2023-02-28T01:58:24;6.60;;;6.00;;
13267;SDS011;6702;47.068;15.458;2023-02-28T02:01:28;7.73;;;6.07;;
13267;SDS011;6702;47.068;15.458;2023-02-28T02:04:37;6.63;;;5.93;;
13267;SDS011;6702;47.068;15.458;2023-02-28T02:07:45;6.60;;;6.10;;
13267;SDS011;6702;47.068;15.458;2023-02-28T02:10:51;7.57;;;6.77;;
13267;SDS011;6702;47.068;15.458;2023-02-28T02:14:10;6.20;;;5.70;;
13267;SDS011;6702;47.068;15.458;2023-02-28T02:17:25;6.40;;;5.90;;
13267;SDS011;6702;47.068;15.458;2023-02-28T02:20:42;7.27;;;6.67;;
13267;SDS011;6702;47.068;15.458;2023-02-28T02:24:18;6.40;;;5.80;;
13267;SDS011;6702;47.068;15.458;2023-02-28T02:27:56;6.60;;;6.00;;
13267;SDS011;6702;47.068;15.458;2023-02-28T02:31:25;7.00;;;6.40;;
13267;SDS011;6702;47.068;15.458;2023-02-28T02:34:41;7.53;;;6.93;;
13267;SDS011;6702;47.068;15.458;2023-02-28T02:37:50;5.50;;;5.10;;
13267;SDS011;6702;47.068;15.458;2023-02-28T02:41:04;8.67;;;6.90;;
13267;SDS011;6702;47.068;15.458;2023-02-28T02:44:15;6.63;;;6.13;;
13267;SDS011;6702;47.068;15.458;2023-02-28T02:47:24;6.93;;;6.43;;
13267;SDS011;6702;47.068;15.458;2023-02-28T02:50:33;6.47;;;5.87;;
13267;SDS011;6702;47.068;15.458;2023-02-28T02:53:40;6.43;;;5.93;;
13267;SDS011;6702;47.068;15.458;2023-02-28T02:56:48;6.93;;;6.23;;
13267;SDS011;6702;47.068;15.458;2023-02-28T02:59:54;6.53;;;5.93;;
13267;SDS011;6702;47.068;15.458;2023-02-28T03:02:58;8.27;;;6.63;;
13267;SDS011;6702;47.068;15.458;2023-02-28T03:06:05;7.13;;;6.63;;
13267;SDS011;6702;47.068;15.458;2023-02-28T03:09:09;7.33;;;6.73;;
13267;SDS011;6702;47.068;15.458;2023-02-28T03:12:12;8.27;;;7.07;;
13267;SDS011;6702;47.068;15.458;2023-02-28T03:15:16;8.60;;;7.67;;
13267;SDS011;6702;47.068;15.458;2023-02-28T03:18:29;8.13;;;7.20;;
13267;SDS011;6702;47.068;15.458;2023-02-28T03:21:40;7.73;;;6.93;;
13267;SDS011;6702;47.068;15.458;2023-02-28T03:24:49;9.77;;;7.47;;
13267;SDS011;6702;47.068;15.458;2023-02-28T03:28:02;7.97;;;7.33;;
13267;SDS011;6702;47.068;15.458;2023-02-28T03:31:11;8.27;;;7.60;;
13267;SDS011;6702;47.068;15.458;2023-02-28T03:34:22;8.97;;;7.77;;
13267;SDS011;6702;47.068;15.458;2023-02-28T03:37:30;9.10;;;7.83;;
13267;SDS011;6702;47.068;15.458;2023-02-28T03:40:37;8.77;;;7.30;;
13267;SDS011;6702;47.068;15.458;2023-02-28T03:43:44;9.63;;;6.57;;
13267;SDS011;6702;47.068;15.458;2023-02-28T03:46:54;7.77;;;7.07;;
13267;SDS011;6702;47.068;15.458;2023-02-28T03:50:03;8.43;;;7.63;;
13267;SDS011;6702;47.068;15.458;2023-02-28T03:53:13;8.00;;;7.20;;
13267;SDS011;6702;47.068;15.458;2023-02-28T03:56:19;8.03;;;7.33;;
13267;SDS011;6702;47.068;15.458;2023-02-28T03:59:26;9.43;;;8.63;;
13267;SDS011;6702;47.068;15.458;2023-02-28T04:02:33;10.13;;;8.23;;
13267;SDS011;6702;47.068;15.458;2023-02-28T04:05:44;7.73;;;7.13;;
13267;SDS011;6702;47.068;15.458;2023-02-28T04:08:53;9.30;;;7.97;;
13267;SDS011;6702;47.068;15.458;2023-02-28T04:11:57;7.90;;;7.30;;
13267;SDS011;6702;47.068;15.458;2023-02-28T04:15:00;10.60;;;7.43;;
13267;SDS011;6702;47.068;15.458;2023-02-28T04:18:03;8.87;;;8.07;;
13267;SDS011;6702;47.068;15.458;2023-02-28T04:21:07;8.60;;;7.80;;
13267;SDS011;6702;47.068;15.458;2023-02-28T04:24:12;8.00;;;7.30;;
13267;SDS011;6702;47.068;15.458;2023-02-28T04:27:17;11.07;;;8.90;;
13267;SDS011;6702;47.068;15.458;2023-02-28T04:30:20;7.77;;;6.73;;
13267;SDS011;6702;47.068;15.458;2023-02-28T04:33:23;8.33;;;7.57;;
13267;SDS011;6702;47.068;15.458;2023-02-28T04:36:27;7.80;;;7.00;;
13267;SDS011;6702;47.068;15.458;2023-02-28T04:39:34;8.30;;;7.60;;
13267;SDS011;6702;47.068;15.458;2023-02-28T04:42:38;10.60;;;7.70;;
13267;SDS011;6702;47.068;15.458;2023-02-28T04:45:41;9.03;;;6.90;;
13267;SDS011;6702;47.068;15.458;2023-02-28T04:48:44;8.30;;;7.23;;
13267;SDS011;6702;47.068;15.458;2023-02-28T04:51:47;8.40;;;7.70;;
13267;SDS011;6702;47.068;15.458;2023-02-28T04:54:52;9.70;;;8.70;;
13267;SDS011;6702;47.068;15.458;2023-02-28T04:57:55;9.90;;;8.20;;
13267;SDS011;6702;47.068;15.458;2023-02-28T05:01:02;10.00;;;9.00;;
13267;SDS011;6702;47.068;15.458;2023-02-28T05:04:06;8.43;;;7.63;;
13267;SDS011;6702;47.068;15.458;2023-02-28T05:07:09;8.73;;;7.93;;
13267;SDS011;6702;47.068;15.458;2023-02-28T05:10:14;8.20;;;7.40;;
13267;SDS011;6702;47.068;15.458;2023-02-28T05:13:17;9.47;;;8.40;;
13267;SDS011;6702;47.068;15.458;2023-02-28T05:16:20;9.30;;;7.87;;
13267;SDS011;6702;47.068;15.458;2023-02-28T05:19:24;9.60;;;8.33;;
13267;SDS011;6702;47.068;15.458;2023-02-28T05:22:27;9.40;;;8.50;;
13267;SDS011;6702;47.068;15.458;2023-02-28T05:25:31;11.33;;;7.70;;
13267;SDS011;6702;47.068;15.458;2023-02-28T05:28:34;8.60;;;7.70;;
13267;SDS011;6702;47.068;15.458;2023-02-28T05:31:38;8.80;;;7.90;;
13267;SDS011;6702;47.068;15.458;2023-02-28T05:34:41;9.93;;;8.73;;
13267;SDS011;6702;47.068;15.458;2023-02-28T05:37:44;12.07;;;9.13;;
13267;SDS011;6702;47.068;15.458;2023-02-28T05:40:49;11.23;;;8.80;;
13267;SDS011;6702;47.068;15.458;2023-02-28T05:43:53;9.20;;;8.27;;
13267;SDS011;6702;47.068;15.458;2023-02-28T05:46:56;10.20;;;9.17;;
13267;SDS011;6702;47.068;15.458;2023-02-28T05:49:59;9.33;;;8.47;;
13267;SDS011;6702;47.068;15.458;2023-02-28T05:53:03;11.20;;;8.03;;
13267;SDS011;6702;47.068;15.458;2023-02-28T05:56:07;9.00;;;8.10;;
13267;SDS011;6702;47.068;15.458;2023-02-28T05:59:11;11.60;;;9.03;;
13267;SDS011;6702;47.068;15.458;2023-02-28T06:02:16;11.00;;;8.47;;
13267;SDS011;6702;47.068;15.458;2023-02-28T06:05:20;11.23;;;9.60;;
13267;SDS011;6702;47.068;15.458;2023-02-28T06:08:23;10.33;;;8.97;;
13267;SDS011;6702;47.068;15.458;2023-02-28T06:11:28;9.87;;;8.63;;
13267;SDS011;6702;47.068;15.458;2023-02-28T06:14:32;13.30;;;8.20;;
13267;SDS011;6702;47.068;15.458;2023-02-28T06:17:36;10.73;;;9.67;;
13267;SDS011;6702;47.068;15.458;2023-02-28T06:20:39;9.67;;;8.70;;
13267;SDS011;6702;47.068;15.458;2023-02-28T06:23:43;9.90;;;8.90;;
13267;SDS011;6702;47.068;15.458;2023-02-28T06:26:48;9.67;;;8.67;;
13267;SDS011;6702;47.068;15.458;2023-02-28T06:29:53;15.07;;;9.33;;
13267;SDS011;6702;47.068;15.458;2023-02-28T06:32:57;10.60;;;9.57;;
13267;SDS011;6702;47.068;15.458;2023-02-28T06:36:00;11.37;;;9.70;;
13267;SDS011;6702;47.068;15.458;2023-02-28T06:39:03;11.00;;;9.80;;
13267;SDS011;6702;47.068;15.458;2023-02-28T06:42:08;11.47;;;9.47;;
13267;SDS011;6702;47.068;15.458;2023-02-28T06:45:11;13.00;;;9.50;;
13267;SDS011;6702;47.068;15.458;2023-02-28T06:48:15;14.83;;;9.50;;
13267;SDS011;6702;47.068;15.458;2023-02-28T06:51:19;10.70;;;8.90;;
13267;SDS011;6702;47.068;15.458;2023-02-28T06:54:23;13.27;;;10.57;;
13267;SDS011;6702;47.068;15.458;2023-02-28T06:57:29;11.30;;;10.10;;
13267;SDS011;6702;47.068;15.458;2023-02-28T07:00:33;11.87;;;9.73;;
13267;SDS011;6702;47.068;15.458;2023-02-28T07:03:36;11.20;;;10.10;;
13267;SDS011;6702;47.068;15.458;2023-02-28T07:06:39;10.53;;;9.53;;
13267;SDS011;6702;47.068;15.458;2023-02-28T07:09:42;11.93;;;10.63;;
13267;SDS011;6702;47.068;15.458;2023-02-28T07:12:47;12.13;;;9.33;;
13267;SDS011;6702;47.068;15.458;2023-02-28T07:15:53;13.70;;;9.97;;
13267;SDS011;6702;47.068;15.458;2023-02-28T07:18:57;11.57;;;10.40;;
13267;SDS011;6702;47.068;15.458;2023-02-28T07:22:01;9.63;;;8.60;;
13267;SDS011;6702;47.068;15.458;2023-02-28T07:25:05;11.67;;;9.70;;
13267;SDS011;6702;47.068;15.458;2023-02-28T07:28:10;12.60;;;9.60;;
13267;SDS011;6702;47.068;15.458;2023-02-28T07:31:13;10.77;;;9.67;;
13267;SDS011;6702;47.068;15.458;2023-02-28T07:34:17;17.83;;;10.50;;
13267;SDS011;6702;47.068;15.458;2023-02-28T07:37:20;12.10;;;9.40;;
13267;SDS011;6702;47.068;15.458;2023-02-28T07:40:23;11.20;;;10.07;;
13267;SDS011;6702;47.068;15.458;2023-02-28T07:43:28;12.67;;;9.70;;
13267;SDS011;6702;47.068;15.458;2023-02-28T07:46:31;10.93;;;9.90;;
13267;SDS011;6702;47.068;15.458;2023-02-28T07:49:37;11.37;;;9.43;;
13267;SDS011;6702;47.068;15.458;2023-02-28T07:52:41;10.43;;;9.33;;
13267;SDS011;6702;47.068;15.458;2023-02-28T07:55:44;15.37;;;12.07;;
13267;SDS011;6702;47.068;15.458;2023-02-28T07:58:49;9.40;;;8.50;;
13267;SDS011;6702;47.068;15.458;2023-02-28T08:01:52;12.37;;;10.23;;
13267;SDS011;6702;47.068;15.458;2023-02-28T08:04:55;10.20;;;9.20;;
13267;SDS011;6702;47.068;15.458;2023-02-28T08:07:59;11.63;;;10.47;;
13267;SDS011;6702;47.068;15.458;2023-02-28T08:11:02;13.50;;;10.53;;
13267;SDS011;6702;47.068;15.458;2023-02-28T08:14:07;12.33;;;9.77;;
13267;SDS011;6702;47.068;15.458;2023-02-28T08:17:10;14.67;;;9.97;;
13267;SDS011;6702;47.068;15.458;2023-02-28T08:20:13;15.10;;;10.10;;
13267;SDS011;6702;47.068;15.458;2023-02-28T08:23:16;11.57;;;10.00;;
13267;SDS011;6702;47.068;15.458;2023-02-28T08:26:20;10.80;;;9.70;;
13267;SDS011;6702;47.068;15.458;2023-02-28T08:29:24;9.77;;;8.83;;
13267;SDS011;6702;47.068;15.458;2023-02-28T08:32:28;11.33;;;10.10;;
13267;SDS011;6702;47.068;15.458;2023-02-28T08:35:31;14.10;;;10.27;;
13267;SDS011;6702;47.068;15.458;2023-02-28T08:38:34;12.30;;;9.00;;
13267;SDS011;6702;47.068;15.458;2023-02-28T08:41:38;14.40;;;10.97;;
13267;SDS011;6702;47.068;15.458;2023-02-28T08:44:42;13.03;;;10.40;;
13267;SDS011;6702;47.068;15.458;2023-02-28T08:47:45;11.87;;;9.60;;
13267;SDS011;6702;47.068;15.458;2023-02-28T08:50:54;13.53;;;10.87;;
13267;SDS011;6702;47.068;15.458;2023-02-28T08:54:07;11.03;;;9.90;;
13267;SDS011;6702;47.068;15.458;2023-02-28T08:57:13;14.20;;;9.50;;
13267;SDS011;6702;47.068;15.458;2023-02-28T09:00:18;11.30;;;10.03;;
13267;SDS011;6702;47.068;15.458;2023-02-28T09:03:22;10.73;;;9.63;;
13267;SDS011;6702;47.068;15.458;2023-02-28T09:06:26;13.10;;;11.00;;
13267;SDS011;6702;47.068;15.458;2023-02-28T09:09:30;11.70;;;10.50;;
13267;SDS011;6702;47.068;15.458;2023-02-28T09:12:34;12.57;;;10.40;;
13267;SDS011;6702;47.068;15.458;2023-02-28T09:15:39;12.13;;;10.73;;
13267;SDS011;6702;47.068;15.458;2023-02-28T09:18:42;12.77;;;10.27;;
13267;SDS011;6702;47.068;15.458;2023-02-28T09:21:46;11.63;;;9.67;;
13267;SDS011;6702;47.068;15.458;2023-02-28T09:24:49;11.77;;;10.23;;
13267;SDS011;6702;47.068;15.458;2023-02-28T09:27:53;12.73;;;9.73;;
13267;SDS011;6702;47.068;15.458;2023-02-28T09:30:57;13.37;;;10.90;;
13267;SDS011;6702;47.068;15.458;2023-02-28T09:34:01;13.20;;;11.07;;
13267;SDS011;6702;47.068;15.458;2023-02-28T09:37:04;11.40;;;10.20;;
13267;SDS011;6702;47.068;15.458;2023-02-28T09:40:08;13.80;;;11.07;;
13267;SDS011;6702;47.068;15.458;2023-02-28T09:43:12;13.70;;;10.60;;
13267;SDS011;6702;47.068;15.458;2023-02-28T09:46:28;11.53;;;10.40;;
13267;SDS011;6702;47.068;15.458;2023-02-28T09:49:37;13.23;;;11.83;;
13267;SDS011;6702;47.068;15.458;2023-02-28T09:52:43;12.83;;;11.30;;
13267;SDS011;6702;47.068;15.458;2023-02-28T09:55:51;11.13;;;10.00;;
13267;SDS011;6702;47.068;15.458;2023-02-28T09:58:58;18.17;;;15.07;;
13267;SDS011;6702;47.068;15.458;2023-02-28T10:02:12;12.77;;;11.47;;
13267;SDS011;6702;47.068;15.458;2023-02-28T10:05:22;12.53;;;11.30;;
13267;SDS011;6702;47.068;15.458;2023-02-28T10:08:29;12.53;;;11.23;;
13267;SDS011;6702;47.068;15.458;2023-02-28T10:11:37;13.13;;;11.20;;
13267;SDS011;6702;47.068;15.458;2023-02-28T10:14:43;13.03;;;11.13;;
13267;SDS011;6702;47.068;15.458;2023-02-28T10:17:51;11.43;;;10.23;;
13267;SDS011;6702;47.068;15.458;2023-02-28T10:21:10;12.70;;;11.50;;
13267;SDS011;6702;47.068;15.458;2023-02-28T10:24:26;13.73;;;10.87;;
13267;SDS011;6702;47.068;15.458;2023-02-28T10:27:34;12.40;;;11.10;;
13267;SDS011;6702;47.068;15.458;2023-02-28T10:30:38;14.00;;;11.27;;
13267;SDS011;6702;47.068;15.458;2023-02-28T10:33:47;12.30;;;11.00;;
13267;SDS011;6702;47.068;15.458;2023-02-28T10:36:50;12.10;;;10.30;;
13267;SDS011;6702;47.068;15.458;2023-02-28T10:39:54;15.57;;;10.60;;
13267;SDS011;6702;47.068;15.458;2023-02-28T10:42:58;11.20;;;10.00;;
13267;SDS011;6702;47.068;15.458;2023-02-28T10:46:03;12.50;;;11.17;;
13267;SDS011;6702;47.068;15.458;2023-02-28T10:49:19;14.90;;;11.67;;
13267;SDS011;6702;47.068;15.458;2023-02-28T10:52:35;13.00;;;11.63;;
13267;SDS011;6702;47.068;15.458;2023-02-28T10:55:41;15.50;;;12.97;;
13267;SDS011;6702;47.068;15.458;2023-02-28T10:58:46;15.30;;;12.60;;
13267;SDS011;6702;47.068;15.458;2023-02-28T11:01:52;13.83;;;11.73;;
13267;SDS011;6702;47.068;15.458;2023-02-28T11:04:56;19.47;;;13.40;;
13267;SDS011;6702;47.068;15.458;2023-02-28T11:08:03;14.30;;;12.07;;
13267;SDS011;6702;47.068;15.458;2023-02-28T11:11:08;13.20;;;11.80;;
13267;SDS011;6702;47.068;15.458;2023-02-28T11:14:16;14.17;;;12.67;;
13267;SDS011;6702;47.068;15.458;2023-02-28T11:17:24;14.57;;;12.77;;
13267;SDS011;6702;47.068;15.458;2023-02-28T11:20:31;17.87;;;12.57;;
13267;SDS011;6702;47.068;15.458;2023-02-28T11:23:36;13.80;;;12.30;;
13267;SDS011;6702;47.068;15.458;2023-02-28T11:26:43;15.67;;;11.60;;
13267;SDS011;6702;47.068;15.458;2023-02-28T11:29:47;28.00;;;14.23;;
13267;SDS011;6702;47.068;15.458;2023-02-28T11:32:51;12.97;;;11.70;;
13267;SDS011;6702;47.068;15.458;2023-02-28T11:35:57;14.83;;;13.37;;
13267;SDS011;6702;47.068;15.458;2023-02-28T11:39:07;15.60;;;11.93;;
13267;SDS011;6702;47.068;15.458;2023-02-28T11:42:32;17.57;;;13.40;;
13267;SDS011;6702;47.068;15.458;2023-02-28T11:45:49;15.53;;;13.83;;
13267;SDS011;6702;47.068;15.458;2023-02-28T11:49:07;19.73;;;13.00;;
13267;SDS011;6702;47.068;15.458;2023-02-28T11:52:38;15.73;;;12.60;;
13267;SDS011;6702;47.068;15.458;2023-02-28T11:55:47;15.03;;;13.47;;
13267;SDS011;6702;47.068;15.458;2023-02-28T11:58:58;15.17;;;13.27;;
13267;SDS011;6702;47.068;15.458;2023-02-28T12:05:37;15.23;;;12.17;;
13267;SDS011;6702;47.068;15.458;2023-02-28T12:08:51;15.50;;;12.87;;
13267;SDS011;6702;47.068;15.458;2023-02-28T12:12:05;13.70;;;12.00;;
13267;SDS011;6702;47.068;15.458;2023-02-28T12:15:21;13.73;;;11.83;;
13267;SDS011;6702;47.068;15.458;2023-02-28T12:18:39;18.03;;;13.73;;
13267;SDS011;6702;47.068;15.458;2023-02-28T12:25:28;15.27;;;13.67;;
13267;SDS011;6702;47.068;15.458;2023-02-28T12:28:51;18.40;;;13.60;;
13267;SDS011;6702;47.068;15.458;2023-02-28T12:31:59;15.60;;;13.70;;
13267;SDS011;6702;47.068;15.458;2023-02-28T12:35:11;15.40;;;13.90;;
13267;SDS011;6702;47.068;15.458;2023-02-28T12:38:17;16.50;;;13.30;;
13267;SDS011;6702;47.068;15.458;2023-02-28T12:41:29;13.63;;;12.20;;
13267;SDS011;6702;47.068;15.458;2023-02-28T12:44:40;15.40;;;13.90;;
13267;SDS011;6702;47.068;15.458;2023-02-28T12:47:48;17.97;;;14.97;;
13267;SDS011;6702;47.068;15.458;2023-02-28T12:50:55;16.10;;;14.17;;
13267;SDS011;6702;47.068;15.458;2023-02-28T12:54:02;22.17;;;15.60;;
13267;SDS011;6702;47.068;15.458;2023-02-28T12:57:14;16.73;;;14.20;;
13267;SDS011;6702;47.068;15.458;2023-02-28T13:00:22;20.70;;;15.47;;
13267;SDS011;6702;47.068;15.458;2023-02-28T13:03:33;17.57;;;14.07;;
13267;SDS011;6702;47.068;15.458;2023-02-28T13:07:06;16.77;;;13.87;;
13267;SDS011;6702;47.068;15.458;2023-02-28T13:10:22;17.63;;;14.10;;
13267;SDS011;6702;47.068;15.458;2023-02-28T13:13:28;15.30;;;13.67;;
13267;SDS011;6702;47.068;15.458;2023-02-28T13:19:59;16.07;;;14.10;;
13267;SDS011;6702;47.068;15.458;2023-02-28T13:23:03;18.70;;;14.93;;
13267;SDS011;6702;47.068;15.458;2023-02-28T13:34:05;17.07;;;15.23;;
13267;SDS011;6702;47.068;15.458;2023-02-28T13:37:35;16.50;;;14.70;;
13267;SDS011;6702;47.068;15.458;2023-02-28T13:40:39;19.00;;;14.60;;
13267;SDS011;6702;47.068;15.458;2023-02-28T13:44:02;16.83;;;14.00;;
13267;SDS011;6702;47.068;15.458;2023-02-28T13:47:21;16.30;;;13.90;;
13267;SDS011;6702;47.068;15.458;2023-02-28T13:50:29;16.93;;;13.70;;
13267;SDS011;6702;47.068;15.458;2023-02-28T13:53:47;18.40;;;15.03;;
13267;SDS011;6702;47.068;15.458;2023-02-28T13:57:04;14.57;;;13.13;;
13267;SDS011;6702;47.068;15.458;2023-02-28T14:00:22;15.87;;;13.90;;
13267;SDS011;6702;47.068;15.458;2023-02-28T14:03:41;16.07;;;13.80;;
13267;SDS011;6702;47.068;15.458;2023-02-28T14:06:57;16.40;;;12.90;;
13267;SDS011;6702;47.068;15.458;2023-02-28T14:10:03;16.00;;;13.43;;
13267;SDS011;6702;47.068;15.458;2023-02-28T14:13:14;14.00;;;12.13;;
13267;SDS011;6702;47.068;15.458;2023-02-28T14:16:46;18.37;;;13.03;;
13267;SDS011;6702;47.068;15.458;2023-02-28T14:19:51;15.43;;;12.60;;
13267;SDS011;6702;47.068;15.458;2023-02-28T14:22:57;17.30;;;13.37;;
13267;SDS011;6702;47.068;15.458;2023-02-28T14:26:14;15.60;;;12.50;;
13267;SDS011;6702;47.068;15.458;2023-02-28T14:29:38;15.73;;;13.27;;
13267;SDS011;6702;47.068;15.458;2023-02-28T14:33:04;13.70;;;12.30;;
13267;SDS011;6702;47.068;15.458;2023-02-28T14:36:18;15.83;;;11.60;;
13267;SDS011;6702;47.068;15.458;2023-02-28T14:39:26;14.77;;;13.27;;
13267;SDS011;6702;47.068;15.458;2023-02-28T14:42:32;17.60;;;13.67;;
13267;SDS011;6702;47.068;15.458;2023-02-28T14:45:37;14.77;;;12.23;;
13267;SDS011;6702;47.068;15.458;2023-02-28T14:48:40;15.33;;;12.63;;
13267;SDS011;6702;47.068;15.458;2023-02-28T14:51:43;12.60;;;11.30;;
13267;SDS011;6702;47.068;15.458;2023-02-28T14:54:52;18.27;;;13.40;;
13267;SDS011;6702;47.068;15.458;2023-02-28T14:57:57;15.87;;;13.30;;
13267;SDS011;6702;47.068;15.458;2023-02-28T15:01:04;17.43;;;13.50;;
13267;SDS011;6702;47.068;15.458;2023-02-28T15:04:12;15.57;;;12.93;;
13267;SDS011;6702;47.068;15.458;2023-02-28T15:07:23;19.03;;;13.70;;
13267;SDS011;6702;47.068;15.458;2023-02-28T15:10:34;17.10;;;13.40;;
13267;SDS011;6702;47.068;15.458;2023-02-28T15:13:39;15.77;;;12.67;;
13267;SDS011;6702;47.068;15.458;2023-02-28T15:16:45;18.40;;;13.53;;
13267;SDS011;6702;47.068;15.458;2023-02-28T15:19:52;17.53;;;12.87;;
13267;SDS011;6702;47.068;15.458;2023-02-28T15:22:56;20.67;;;13.67;;
13267;SDS011;6702;47.068;15.458;2023-02-28T15:26:02;14.20;;;12.03;;
13267;SDS011;6702;47.068;15.458;2023-02-28T15:29:07;15.83;;;12.17;;
13267;SDS011;6702;47.068;15.458;2023-02-28T15:35:41;17.50;;;13.20;;
13267;SDS011;6702;47.068;15.458;2023-02-28T15:38:45;15.40;;;12.80;;
13267;SDS011;6702;47.068;15.458;2023-02-28T15:42:16;16.07;;;13.40;;
13267;SDS011;6702;47.068;15.458;2023-02-28T15:45:28;16.13;;;12.87;;
13267;SDS011;6702;47.068;15.458;2023-02-28T15:48:43;17.90;;;14.27;;
13267;SDS011;6702;47.068;15.458;2023-02-28T15:51:48;17.70;;;14.80;;
13267;SDS011;6702;47.068;15.458;2023-02-28T15:54:52;16.50;;;12.43;;
13267;SDS011;6702;47.068;15.458;2023-02-28T15:57:59;19.27;;;13.63;;
13267;SDS011;6702;47.068;15.458;2023-02-28T16:01:06;19.57;;;14.17;;
13267;SDS011;6702;47.068;15.458;2023-02-28T16:04:19;18.83;;;14.17;;
13267;SDS011;6702;47.068;15.458;2023-02-28T16:07:23;16.77;;;13.83;;
13267;SDS011;6702;47.068;15.458;2023-02-28T16:10:27;18.90;;;13.80;;
13267;SDS011;6702;47.068;15.458;2023-02-28T16:13:33;18.60;;;13.87;;
13267;SDS011;6702;47.068;15.458;2023-02-28T16:16:41;16.70;;;12.80;;
13267;SDS011;6702;47.068;15.458;2023-02-28T16:19:46;14.93;;;12.90;;
13267;SDS011;6702;47.068;15.458;2023-02-28T16:22:49;16.83;;;13.77;;
13267;SDS011;6702;47.068;15.458;2023-02-28T16:25:53;18.37;;;13.70;;
13267;SDS011;6702;47.068;15.458;2023-02-28T16:28:57;18.43;;;12.70;;
13267;SDS011;6702;47.068;15.458;2023-02-28T16:32:01;14.10;;;12.60;;
13267;SDS011;6702;47.068;15.458;2023-02-28T16:35:09;18.93;;;13.30;;
13267;SDS011;6702;47.068;15.458;2023-02-28T16:38:15;19.60;;;13.17;;
13267;SDS011;6702;47.068;15.458;2023-02-28T16:41:19;16.90;;;12.97;;
13267;SDS011;6702;47.068;15.458;2023-02-28T16:44:29;16.53;;;13.70;;
13267;SDS011;6702;47.068;15.458;2023-02-28T16:47:35;16.87;;;13.07;;
13267;SDS011;6702;47.068;15.458;2023-02-28T16:50:38;15.77;;;12.17;;
13267;SDS011;6702;47.068;15.458;2023-02-28T16:53:42;17.10;;;12.90;;
13267;SDS011;6702;47.068;15.458;2023-02-28T16:56:47;16.50;;;12.63;;
13267;SDS011;6702;47.068;15.458;2023-02-28T16:59:52;15.43;;;13.10;;
13267;SDS011;6702;47.068;15.458;2023-02-28T17:02:56;16.67;;;12.80;;
13267;SDS011;6702;47.068;15.458;2023-02-28T17:06:02;18.30;;;12.37;;
13267;SDS011;6702;47.068;15.458;2023-02-28T17:09:08;18.70;;;12.53;;
13267;SDS011;6702;47.068;15.458;2023-02-28T17:12:18;15.03;;;12.70;;
13267;SDS011;6702;47.068;15.458;2023-02-28T17:15:23;20.37;;;15.27;;
13267;SDS011;6702;47.068;15.458;2023-02-28T17:18:27;16.10;;;12.63;;
13267;SDS011;6702;47.068;15.458;2023-02-28T17:21:35;17.83;;;13.67;;
13267;SDS011;6702;47.068;15.458;2023-02-28T17:24:39;16.73;;;14.83;;
13267;SDS011;6702;47.068;15.458;2023-02-28T17:27:43;15.63;;;13.60;;
13267;SDS011;6702;47.068;15.458;2023-02-28T17:30:48;20.77;;;15.27;;
13267;SDS011;6702;47.068;15.458;2023-02-28T17:33:53;19.80;;;15.77;;
13267;SDS011;6702;47.068;15.458;2023-02-28T17:36:56;18.40;;;14.40;;
13267;SDS011;6702;47.068;15.458;2023-02-28T17:40:01;16.80;;;13.70;;
13267;SDS011;6702;47.068;15.458;2023-02-28T17:43:06;25.50;;;17.83;;
13267;SDS011;6702;47.068;15.458;2023-02-28T17:46:14;17.70;;;14.13;;
13267;SDS011;6702;47.068;15.458;2023-02-28T17:49:22;17.40;;;14.07;;
13267;SDS011;6702;47.068;15.458;2023-02-28T17:52:28;15.47;;;13.40;;
13267;SDS011;6702;47.068;15.458;2023-02-28T17:55:38;17.30;;;13.50;;
13267;SDS011;6702;47.068;15.458;2023-02-28T17:58:41;16.67;;;13.07;;
13267;SDS011;6702;47.068;15.458;2023-02-28T18:01:47;14.00;;;12.10;;
13267;SDS011;6702;47.068;15.458;2023-02-28T18:04:52;16.77;;;13.17;;
13267;SDS011;6702;47.068;15.458;2023-02-28T18:07:56;17.47;;;13.13;;
13267;SDS011;6702;47.068;15.458;2023-02-28T18:11:02;18.77;;;13.40;;
13267;SDS011;6702;47.068;15.458;2023-02-28T18:14:06;19.03;;;14.40;;
13267;SDS011;6702;47.068;15.458;2023-02-28T18:17:12;18.70;;;16.43;;
13267;SDS011;6702;47.068;15.458;2023-02-28T18:20:17;16.40;;;14.53;;
13267;SDS011;6702;47.068;15.458;2023-02-28T18:23:23;22.23;;;15.90;;
13267;SDS011;6702;47.068;15.458;2023-02-28T18:26:28;18.30;;;14.60;;
13267;SDS011;6702;47.068;15.458;2023-02-28T18:29:33;21.63;;;15.37;;
13267;SDS011;6702;47.068;15.458;2023-02-28T18:32:42;17.90;;;14.47;;
13267;SDS011;6702;47.068;15.458;2023-02-28T18:35:54;18.93;;;14.57;;
13267;SDS011;6702;47.068;15.458;2023-02-28T18:38:58;18.83;;;16.70;;
13267;SDS011;6702;47.068;15.458;2023-02-28T18:42:02;18.53;;;15.50;;
13267;SDS011;6702;47.068;15.458;2023-02-28T18:45:07;19.67;;;14.23;;
13267;SDS011;6702;47.068;15.458;2023-02-28T18:48:15;16.00;;;12.70;;